マレ の空港の天気 - METARとTAF

マレ国際空港 ( VRMM / MLE ) - モルディブ Hulhule Island, North Male Atoll
飛行場実況気象(Metar)
観測時間08/11 12:00 MVT (08/11 07:00 UTC)
風向・風速西 5m/s
視程10km以上
天気現象
少しの雲 雲底高度 550m
全天の8割程度の雲 雲底高度 7920m
気温32℃
湿度71%
気圧1011hPa
METARVRMM 110700Z 26009KT 9999 FEW018 BKN260 32/26 Q1011 NOSIG
過去の天気等 Google飛行場航空写真 Wunderground天気予報

過去48時間のMETAR

飛行場予報(TAF)
発表時間: 8/11 10:00 MVT (8/11 05:00 UTC)
予報対象時間: 11日11時 MVT ~ 12日17時 MVT
風向・風速西南西 7m/s
視程10km以上
少しの雲 雲底高度 550m
11日13時 MVT ~ 11日19時 MVT に一時的に
少しの積乱雲 雲底高度 550m
TAF VRMM 110500Z 1106/1212 25013KT 9999 FEW018
TEMPO 1108/1114 FEW018CB